Time;durP1;ratioP1;P1;durP2;ratioP2;P2;SDS_P1;SDS_P2;PMS_P1;PMS_P2;Temp;Humidity;BMP_temperature;BMP_pressure;BME280_temperature;BME280_humidity;BME280_pressure;Samples;Min_cycle;Max_cycle;Signal;HPM_P1;HPM_P2
2022/01/11 00:00:54;;;;;;;1.58;0.30;;;;;;;19.76;42.21;100743.38;4996762;28;20129;-40
2022/01/11 00:03:19;;;;;;;0.85;0.32;;;;;;;19.72;42.10;100752.72;5005214;28;20041;-45
2022/01/11 00:08:15;;;;;;;1.58;0.22;;;;;;;19.62;42.17;100754.09;5001188;28;20140;-43
2022/01/11 00:10:50;;;;;;;1.75;0.30;;;;;;;19.59;42.10;100749.19;5007911;28;20138;-41
2022/01/11 00:13:18;;;;;;;1.05;0.30;;;;;;;19.52;42.27;100765.03;5002125;28;21167;-43
2022/01/11 00:15:44;;;;;;;0.63;0.30;;;;;;;19.48;42.21;100756.63;5006323;28;20497;-44
2022/01/11 00:18:09;;;;;;;0.50;0.30;;;;;;;19.78;41.41;100767.00;5005118;28;20038;-47
2022/01/11 00:20:37;;;;;;;2.50;0.30;;;;;;;20.67;39.60;100749.09;5009018;28;20362;-44
2022/01/11 00:25:32;;;;;;;0.88;0.30;;;;;;;21.94;37.34;100759.19;5006674;28;20030;-41
2022/01/11 00:27:58;;;;;;;0.63;0.28;;;;;;;22.25;36.61;100754.94;5003867;28;20091;-45
2022/01/11 00:30:30;;;;;;;0.70;0.32;;;;;;;22.37;35.94;100748.75;4999940;28;20378;-39
2022/01/11 00:32:58;;;;;;;0.68;0.20;;;;;;;22.49;35.72;100747.03;5018748;28;20032;-46
2022/01/11 00:35:28;;;;;;;1.67;0.30;;;;;;;22.55;35.39;100745.34;5003756;28;20117;-41
2022/01/11 00:37:54;;;;;;;0.60;0.30;;;;;;;22.60;35.75;100758.81;4999838;28;20572;-44
2022/01/11 00:40:20;;;;;;;0.60;0.20;;;;;;;22.05;36.41;100747.94;5007702;28;20053;-43
2022/01/11 00:42:45;;;;;;;0.35;0.20;;;;;;;21.23;38.10;100764.56;5007813;28;20025;-45
2022/01/11 00:45:12;;;;;;;0.85;0.20;;;;;;;20.63;39.11;100755.81;4999047;28;20076;-43
2022/01/11 00:47:38;;;;;;;0.68;0.20;;;;;;;20.27;39.84;100764.09;5013344;28;20056;-41
2022/01/11 00:50:06;;;;;;;0.50;0.20;;;;;;;20.05;40.32;100767.88;5008289;28;20472;-40
2022/01/11 00:52:32;;;;;;;0.70;0.20;;;;;;;19.87;40.64;100771.06;5007630;28;20026;-43
2022/01/11 00:54:57;;;;;;;0.47;0.20;;;;;;;19.74;40.54;100776.31;5002858;28;20623;-40
2022/01/11 00:57:23;;;;;;;0.60;0.20;;;;;;;19.65;40.93;100767.75;5004473;28;20057;-38
2022/01/11 00:59:48;;;;;;;0.55;0.20;;;;;;;19.58;41.04;100766.06;5000711;28;20039;-43
2022/01/11 01:02:14;;;;;;;0.43;0.20;;;;;;;19.50;41.02;100773.13;5004180;28;20038;-44
2022/01/11 01:04:39;;;;;;;0.40;0.20;;;;;;;19.44;41.08;100775.72;5003824;28;20057;-41
2022/01/11 01:07:05;;;;;;;1.55;0.20;;;;;;;19.38;41.20;100777.31;5006690;28;20117;-47
2022/01/11 01:09:40;;;;;;;0.70;0.30;;;;;;;19.32;41.28;100769.38;5003763;28;20492;-45
2022/01/11 01:12:07;;;;;;;0.80;0.20;;;;;;;19.27;41.29;100782.34;5011283;28;20060;-46
2022/01/11 01:14:32;;;;;;;0.90;0.20;;;;;;;19.23;41.40;100773.97;5009731;28;20076;-44
2022/01/11 01:16:58;;;;;;;12.93;0.40;;;;;;;19.17;41.61;100785.31;5000768;28;20033;-46
2022/01/11 01:19:27;;;;;;;0.50;0.20;;;;;;;19.13;41.27;100786.72;5007581;28;20037;-39
2022/01/11 01:21:54;;;;;;;0.50;0.20;;;;;;;19.12;41.46;100793.81;5013069;28;20028;-39
2022/01/11 01:24:21;;;;;;;0.55;0.20;;;;;;;19.10;41.67;100795.84;5011924;28;20405;-44
2022/01/11 01:26:46;;;;;;;0.50;0.20;;;;;;;19.67;40.41;100789.50;5030744;23;20111;-46
2022/01/11 01:29:12;;;;;;;2.75;0.30;;;;;;;20.57;38.49;100804.25;5030585;28;20029;-51
2022/01/11 01:31:38;;;;;;;0.70;0.20;;;;;;;21.30;37.05;100797.13;5031203;28;20562;-49
2022/01/11 01:34:04;;;;;;;0.80;0.20;;;;;;;21.73;36.19;100812.53;5034114;28;20037;-47
2022/01/11 01:36:30;;;;;;;0.55;0.20;;;;;;;22.01;35.58;100791.84;5024910;28;20057;-50
2022/01/11 01:38:55;;;;;;;0.43;0.30;;;;;;;22.09;35.32;100798.75;5027905;28;20123;-47
2022/01/11 01:41:22;;;;;;;0.57;0.20;;;;;;;22.00;35.39;100811.41;5027201;28;20085;-48
2022/01/11 01:43:53;;;;;;;0.88;0.20;;;;;;;21.88;35.63;100807.78;5027689;28;20033;-47
2022/01/11 01:46:20;;;;;;;0.60;0.17;;;;;;;21.67;36.08;100805.41;5025217;28;20048;-48
2022/01/11 01:48:46;;;;;;;0.35;0.10;;;;;;;21.01;37.16;100818.75;5026991;28;20037;-46
2022/01/11 01:51:12;;;;;;;0.43;0.20;;;;;;;20.45;37.98;100816.44;5028628;28;20090;-47
2022/01/11 01:53:43;;;;;;;0.88;0.20;;;;;;;20.07;38.99;100816.09;5024200;28;20110;-52
2022/01/11 01:56:09;;;;;;;0.93;0.20;;;;;;;19.84;39.38;100819.91;5027160;28;20029;-50
2022/01/11 01:58:37;;;;;;;0.40;0.20;;;;;;;19.68;39.58;100820.22;5026749;28;20481;-48
2022/01/11 02:01:04;;;;;;;0.45;0.15;;;;;;;19.58;40.00;100818.94;5024937;28;20510;-47
2022/01/11 02:03:37;;;;;;;0.52;0.20;;;;;;;19.48;39.67;100812.13;5026067;28;20037;-47
2022/01/11 02:06:03;;;;;;;0.20;0.20;;;;;;;19.40;39.99;100822.84;5024193;28;20112;-47
2022/01/11 02:08:28;;;;;;;0.50;0.10;;;;;;;19.34;39.87;100807.78;5027057;28;20034;-48
2022/01/11 02:10:54;;;;;;;0.60;0.20;;;;;;;19.30;40.05;100816.28;5026941;28;20111;-49
2022/01/11 02:13:20;;;;;;;0.40;0.20;;;;;;;19.23;40.03;100821.53;5041923;28;20295;-48
2022/01/11 02:15:45;;;;;;;0.40;0.20;;;;;;;19.20;40.18;100827.19;5023619;28;20604;-48
2022/01/11 02:18:14;;;;;;;0.50;0.20;;;;;;;19.15;40.24;100829.59;5026406;28;20045;-48
2022/01/11 02:20:40;;;;;;;0.60;0.30;;;;;;;19.11;40.24;100828.34;5027183;28;20076;-48
2022/01/11 02:23:07;;;;;;;0.38;0.20;;;;;;;19.06;40.35;100821.00;5026507;28;20037;-48
2022/01/11 02:25:33;;;;;;;0.57;0.28;;;;;;;19.04;40.42;100828.28;5025819;28;20099;-46
2022/01/11 02:27:58;;;;;;;0.40;0.20;;;;;;;19.00;40.33;100818.28;5026633;28;20075;-49
2022/01/11 02:30:24;;;;;;;0.60;0.20;;;;;;;18.97;40.42;100826.59;5025789;28;20033;-47
2022/01/11 02:32:51;;;;;;;0.63;0.20;;;;;;;18.95;40.50;100823.31;5025740;28;20028;-47
2022/01/11 02:35:17;;;;;;;0.47;0.20;;;;;;;19.44;39.54;100816.16;5025782;28;20029;-51
2022/01/11 02:37:44;;;;;;;0.77;0.10;;;;;;;20.33;37.72;100823.28;5026715;28;20029;-47
2022/01/11 02:40:12;;;;;;;0.50;0.20;;;;;;;21.10;36.13;100831.59;5028128;28;20048;-46
2022/01/11 02:42:37;;;;;;;0.52;0.20;;;;;;;21.53;34.99;100816.06;5026515;28;20033;-47
2022/01/11 02:45:03;;;;;;;0.30;0.20;;;;;;;21.78;35.05;100841.88;5026267;28;20022;-47
2022/01/11 02:47:28;;;;;;;0.75;0.20;;;;;;;21.90;34.48;100847.34;5025439;28;20029;-47
2022/01/11 02:49:54;;;;;;;0.30;0.20;;;;;;;21.96;34.34;100820.81;5025801;28;20026;-48
2022/01/11 02:52:19;;;;;;;0.70;0.20;;;;;;;22.04;34.10;100841.81;5042105;28;20037;-46
2022/01/11 02:54:45;;;;;;;0.30;0.10;;;;;;;21.82;34.55;100856.34;5027064;28;20044;-48
2022/01/11 02:57:10;;;;;;;0.40;0.20;;;;;;;21.02;35.74;100847.69;5025349;28;20029;-48
2022/01/11 02:59:35;;;;;;;0.35;0.10;;;;;;;20.32;37.16;100853.44;5027268;28;20244;-48
2022/01/11 03:02:01;;;;;;;0.40;0.10;;;;;;;19.88;38.03;100849.38;5023842;28;20029;-47
2022/01/11 03:04:30;;;;;;;0.40;0.20;;;;;;;19.58;38.33;100869.16;5024494;28;20124;-47
2022/01/11 03:06:56;;;;;;;0.40;0.20;;;;;;;19.40;38.75;100867.75;5025707;28;20148;-48
2022/01/11 03:09:23;;;;;;;0.38;0.20;;;;;;;19.27;39.01;100864.22;5025563;28;20048;-47
2022/01/11 03:11:48;;;;;;;0.20;0.10;;;;;;;19.17;39.21;100873.28;5026737;28;20485;-47
2022/01/11 03:14:14;;;;;;;0.30;0.20;;;;;;;19.09;39.40;100873.44;5030714;28;20029;-48
2022/01/11 03:16:39;;;;;;;0.40;0.13;;;;;;;19.00;39.39;100876.38;5028492;28;20080;-48
2022/01/11 03:19:04;;;;;;;0.35;0.20;;;;;;;18.95;39.44;100876.13;5028959;28;20017;-48
2022/01/11 03:21:31;;;;;;;0.45;0.20;;;;;;;18.88;39.45;100889.28;5029817;28;20120;-47
2022/01/11 03:23:57;;;;;;;0.40;0.20;;;;;;;18.83;39.57;100878.47;5029133;28;20493;-49
2022/01/11 03:26:23;;;;;;;0.40;0.20;;;;;;;18.77;39.29;100874.75;5023138;28;20050;-48
2022/01/11 03:28:48;;;;;;;0.90;0.10;;;;;;;18.74;39.37;100880.41;5030238;28;20036;-47
2022/01/11 03:31:14;;;;;;;0.38;0.10;;;;;;;18.70;39.20;100902.09;5027432;28;20313;-46
2022/01/11 03:33:40;;;;;;;0.68;0.20;;;;;;;18.66;39.31;100880.53;5032927;28;20355;-47
2022/01/11 03:36:05;;;;;;;0.30;0.15;;;;;;;18.63;39.46;100894.09;5032604;28;20033;-49
2022/01/11 03:38:33;;;;;;;0.40;0.20;;;;;;;18.60;39.48;100888.34;5028350;28;20033;-48
2022/01/11 03:40:59;;;;;;;0.52;0.13;;;;;;;18.56;39.52;100883.44;5030927;28;20025;-49
2022/01/11 03:43:26;;;;;;;0.30;0.10;;;;;;;18.65;39.22;100881.53;5023953;28;20519;-48
2022/01/11 03:45:51;;;;;;;0.30;0.10;;;;;;;19.51;37.85;100885.78;5028472;28;20064;-49
2022/01/11 03:48:18;;;;;;;0.30;0.10;;;;;;;20.39;36.09;100886.03;5027965;28;20068;-48
2022/01/11 03:50:49;;;;;;;0.40;0.13;;;;;;;21.03;34.79;100894.34;5028935;28;20033;-55
2022/01/11 03:53:17;;;;;;;0.20;0.10;;;;;;;21.37;34.35;100882.75;5028728;28;20033;-46
2022/01/11 03:58:21;;;;;;;0.30;0.10;;;;;;;21.44;34.20;100903.94;5027985;28;20041;-48
2022/01/11 04:00:47;;;;;;;0.20;0.10;;;;;;;21.40;34.16;100890.28;5028096;28;20485;-48
2022/01/11 04:03:12;;;;;;;0.40;0.20;;;;;;;21.38;34.45;100887.03;5026940;28;20053;-48
2022/01/11 04:05:40;;;;;;;0.30;0.10;;;;;;;21.18;34.68;100899.44;5029598;28;20021;-51
2022/01/11 04:08:06;;;;;;;0.30;0.10;;;;;;;20.51;35.62;100903.00;5028321;28;20048;-47
2022/01/11 04:10:31;;;;;;;0.47;0.10;;;;;;;19.96;36.61;100902.09;5029102;28;20117;-47
2022/01/11 04:12:57;;;;;;;0.30;0.20;;;;;;;19.61;37.48;100921.63;5027601;28;20116;-47
2022/01/11 04:15:22;;;;;;;1.10;0.20;;;;;;;19.38;37.85;100908.59;5026773;28;20424;-48
2022/01/11 04:17:48;;;;;;;0.22;0.10;;;;;;;19.23;38.12;100922.72;5028293;28;20479;-53
2022/01/11 04:20:14;;;;;;;0.43;0.17;;;;;;;19.14;38.27;100917.75;5028538;28;20029;-48
2022/01/11 04:22:40;;;;;;;0.30;0.17;;;;;;;19.05;38.43;100919.69;5029952;28;20037;-48
2022/01/11 04:25:05;;;;;;;0.40;0.10;;;;;;;18.99;38.47;100924.91;5027654;28;20114;-46
2022/01/11 04:27:31;;;;;;;0.65;0.20;;;;;;;18.94;38.59;100933.41;5029269;28;20124;-48
2022/01/11 04:29:56;;;;;;;0.20;0.10;;;;;;;18.88;38.69;100924.44;5027717;28;20552;-49
2022/01/11 04:32:22;;;;;;;0.30;0.10;;;;;;;18.83;38.78;100933.91;5026928;28;20034;-49
2022/01/11 04:34:47;;;;;;;0.40;0.20;;;;;;;18.77;39.11;100938.13;5028922;28;20384;-47
2022/01/11 04:37:13;;;;;;;0.35;0.20;;;;;;;18.73;39.06;100936.03;5026909;28;20057;-51
2022/01/11 04:39:38;;;;;;;0.30;0.20;;;;;;;18.68;39.12;100925.22;5028215;28;20026;-48
2022/01/11 04:42:04;;;;;;;0.30;0.15;;;;;;;18.64;39.13;100932.69;5027174;28;20040;-47
2022/01/11 04:44:29;;;;;;;0.40;0.20;;;;;;;18.62;39.16;100915.41;5028130;28;20029;-47
2022/01/11 04:46:55;;;;;;;0.50;0.20;;;;;;;18.57;39.19;100926.47;5027078;28;20208;-47
2022/01/11 04:49:21;;;;;;;0.80;0.15;;;;;;;18.54;39.25;100916.28;5026997;28;20021;-48
2022/01/11 04:51:46;;;;;;;0.40;0.20;;;;;;;18.49;38.98;100919.47;5028894;28;20425;-48
2022/01/11 04:54:13;;;;;;;0.40;0.20;;;;;;;18.47;39.06;100932.03;5027554;28;20088;-46
2022/01/11 04:56:38;;;;;;;0.30;0.10;;;;;;;18.57;39.15;100940.47;5028647;28;20056;-46
2022/01/11 04:59:04;;;;;;;0.43;0.20;;;;;;;19.39;37.72;100915.50;5027523;28;20552;-48
2022/01/11 05:01:30;;;;;;;0.25;0.10;;;;;;;20.26;36.14;100925.66;5027450;28;20025;-46
2022/01/11 05:03:56;;;;;;;0.20;0.10;;;;;;;20.82;34.82;100929.75;5027553;28;20193;-47
2022/01/11 05:06:21;;;;;;;0.40;0.17;;;;;;;21.22;34.14;100929.84;5028540;28;20040;-48
2022/01/11 05:08:48;;;;;;;0.38;0.20;;;;;;;21.48;33.96;100939.63;5028712;28;20041;-48
2022/01/11 05:11:14;;;;;;;0.32;0.10;;;;;;;21.69;33.46;100939.44;5027491;28;20021;-48
2022/01/11 05:13:39;;;;;;;0.38;0.10;;;;;;;21.88;33.21;100924.47;5028284;28;20064;-48
2022/01/11 05:16:05;;;;;;;0.40;0.10;;;;;;;21.93;33.51;100943.25;5026500;28;20041;-46
2022/01/11 05:18:31;;;;;;;0.50;0.10;;;;;;;21.90;33.31;100938.34;5027381;28;20021;-46
2022/01/11 05:20:56;;;;;;;0.45;0.10;;;;;;;21.14;34.58;100946.72;5026926;28;20156;-50
2022/01/11 05:23:22;;;;;;;0.38;0.10;;;;;;;20.37;35.97;100939.13;5028441;28;20083;-47
2022/01/11 05:25:48;;;;;;;0.40;0.20;;;;;;;19.87;37.37;100935.00;5027102;28;20441;-46
2022/01/11 05:28:14;;;;;;;0.55;0.10;;;;;;;19.58;37.62;100935.22;5028238;28;20330;-47
2022/01/11 05:30:39;;;;;;;0.30;0.10;;;;;;;19.39;38.17;100958.59;5026292;28;20415;-48
2022/01/11 05:33:05;;;;;;;2.83;0.20;;;;;;;19.27;38.39;100941.66;5024709;28;20021;-50
2022/01/11 05:35:31;;;;;;;0.20;0.10;;;;;;;19.19;38.63;100952.34;5026488;28;20395;-47
2022/01/11 05:37:56;;;;;;;0.20;0.10;;;;;;;19.12;38.81;100944.34;5026512;28;20033;-47
2022/01/11 05:40:22;;;;;;;1.15;0.10;;;;;;;19.07;38.83;100945.91;5024437;28;20033;-47
2022/01/11 05:42:49;;;;;;;0.30;0.10;;;;;;;19.03;39.20;100932.28;5027269;28;20072;-51
2022/01/11 05:45:17;;;;;;;0.32;0.10;;;;;;;18.99;39.39;100959.25;5025739;28;21652;-47
2022/01/11 05:47:43;;;;;;;0.40;0.10;;;;;;;18.98;39.49;100949.69;5027383;28;20467;-48
2022/01/11 05:50:10;;;;;;;0.40;0.10;;;;;;;18.95;39.20;100960.63;5026328;28;20043;-48
2022/01/11 05:52:38;;;;;;;0.30;0.10;;;;;;;18.93;39.19;100965.25;5041802;28;20021;-46
2022/01/11 05:55:06;;;;;;;0.35;0.20;;;;;;;18.91;39.13;100970.72;5026395;28;20033;-50
2022/01/11 05:57:32;;;;;;;0.38;0.20;;;;;;;18.90;39.13;100974.41;5026471;28;20033;-47
2022/01/11 05:59:57;;;;;;;0.60;0.20;;;;;;;18.88;39.37;100977.22;5027380;28;20107;-50
2022/01/11 06:02:23;;;;;;;0.30;0.10;;;;;;;18.87;39.31;100986.16;5024072;28;20026;-50
2022/01/11 06:04:48;;;;;;;0.22;0.10;;;;;;;18.88;39.46;100985.16;5026898;28;20073;-46
2022/01/11 06:07:14;;;;;;;0.17;0.03;;;;;;;18.93;39.88;100981.09;5025829;28;20033;-48
2022/01/11 06:09:39;;;;;;;0.30;0.10;;;;;;;18.98;39.76;100984.81;5027064;28;20037;-48
2022/01/11 06:12:05;;;;;;;3.08;0.10;;;;;;;19.86;38.18;100986.25;5025227;28;20041;-50
2022/01/11 06:14:30;;;;;;;0.20;0.10;;;;;;;21.11;35.58;100988.72;5024975;28;20477;-48
2022/01/11 06:16:56;;;;;;;1.48;0.10;;;;;;;21.89;34.49;100957.94;5027497;28;20032;-48
2022/01/11 06:19:21;;;;;;;0.38;0.10;;;;;;;22.54;33.36;100965.97;5025482;28;20160;-47
2022/01/11 06:21:47;;;;;;;0.63;0.10;;;;;;;22.70;33.04;100986.69;5027590;28;20037;-48
2022/01/11 06:24:12;;;;;;;0.45;0.10;;;;;;;22.62;33.54;100979.81;5025614;28;20437;-46
2022/01/11 06:26:38;;;;;;;1.65;0.10;;;;;;;22.59;33.12;100990.03;5025929;28;20064;-46
2022/01/11 06:29:03;;;;;;;0.25;0.10;;;;;;;22.58;33.20;100975.94;5027442;28;20142;-47
2022/01/11 06:31:30;;;;;;;0.35;0.10;;;;;;;22.50;33.55;100992.13;5026759;28;20034;-49
2022/01/11 06:33:56;;;;;;;0.20;0.10;;;;;;;21.84;34.60;100992.22;5025556;28;20456;-49
2022/01/11 06:36:21;;;;;;;0.17;0.10;;;;;;;21.17;35.82;100993.19;5032694;28;20085;-47
2022/01/11 06:38:47;;;;;;;1.08;0.10;;;;;;;20.70;36.71;101000.19;5025171;28;20021;-47
2022/01/11 06:41:13;;;;;;;0.28;0.00;;;;;;;20.44;36.89;101002.72;5024590;28;20022;-48
2022/01/11 06:43:39;;;;;;;0.73;0.10;;;;;;;20.25;37.23;101004.22;5025916;28;21457;-47
2022/01/11 06:46:06;;;;;;;0.20;0.10;;;;;;;20.12;37.34;101001.50;5026126;28;20060;-47
2022/01/11 06:48:32;;;;;;;0.40;0.10;;;;;;;20.04;37.57;101007.75;5027782;28;20026;-47
2022/01/11 06:50:58;;;;;;;0.40;0.10;;;;;;;20.00;37.57;100997.75;5030534;28;20627;-48
2022/01/11 06:53:23;;;;;;;1.17;0.10;;;;;;;19.95;37.72;101021.31;5027826;28;20136;-48
2022/01/11 06:55:50;;;;;;;0.35;0.10;;;;;;;19.89;37.57;101017.59;5030229;28;20030;-47
2022/01/11 06:58:16;;;;;;;0.13;0.05;;;;;;;19.82;37.69;101022.88;5028552;28;20029;-48
2022/01/11 07:00:43;;;;;;;0.52;0.20;;;;;;;19.77;37.91;101029.72;5030008;28;20040;-47
2022/01/11 07:03:09;;;;;;;0.85;0.10;;;;;;;19.71;37.92;101044.53;5028978;28;20055;-50
2022/01/11 07:05:34;;;;;;;0.43;0.10;;;;;;;19.66;38.00;101032.88;5029168;28;20021;-50
2022/01/11 07:07:59;;;;;;;1.60;0.10;;;;;;;19.62;38.26;101034.25;5030554;28;20048;-48
2022/01/11 07:10:25;;;;;;;0.63;0.10;;;;;;;19.57;38.28;101050.69;5028228;28;20026;-48
2022/01/11 07:12:50;;;;;;;0.28;0.10;;;;;;;19.54;38.12;101053.72;5030994;28;20032;-47
2022/01/11 07:15:16;;;;;;;0.32;0.10;;;;;;;19.49;37.70;101048.13;5029619;28;20124;-49
2022/01/11 07:17:42;;;;;;;0.50;0.20;;;;;;;19.46;37.59;101051.97;5029598;28;20034;-48
2022/01/11 07:20:08;;;;;;;0.30;0.20;;;;;;;19.44;37.42;101061.91;5024661;28;20056;-47
2022/01/11 07:22:35;;;;;;;0.25;0.10;;;;;;;19.47;37.74;101060.72;5027921;28;20025;-47
2022/01/11 07:25:00;;;;;;;0.38;0.10;;;;;;;20.55;36.00;101073.63;5031790;28;20604;-47
2022/01/11 07:27:25;;;;;;;0.40;0.20;;;;;;;21.89;33.88;101064.03;5029969;28;20042;-50
2022/01/11 07:29:51;;;;;;;0.40;0.10;;;;;;;22.58;32.56;101089.31;5030683;28;20025;-49
2022/01/11 07:32:17;;;;;;;0.90;0.10;;;;;;;23.08;31.97;101083.25;5030474;28;20033;-49
2022/01/11 07:34:42;;;;;;;0.80;0.10;;;;;;;23.40;31.70;101097.38;5028097;28;20386;-50
2022/01/11 07:37:08;;;;;;;0.85;0.10;;;;;;;23.57;31.38;101099.56;5030064;28;20393;-49
2022/01/11 07:39:33;;;;;;;0.73;0.20;;;;;;;23.71;31.33;101099.25;5028676;28;20076;-52
2022/01/11 07:41:59;;;;;;;1.00;0.20;;;;;;;23.75;31.24;101102.28;5027163;28;20033;-47
2022/01/11 07:44:25;;;;;;;0.20;0.10;;;;;;;23.66;30.50;101103.56;5027363;28;20142;-50
2022/01/11 07:46:52;;;;;;;0.57;0.20;;;;;;;23.08;31.17;101101.03;5030135;28;20065;-49
2022/01/11 07:49:18;;;;;;;0.70;0.10;;;;;;;22.07;33.18;101113.88;5028003;28;20123;-47
2022/01/11 07:51:44;;;;;;;0.63;0.20;;;;;;;21.32;34.47;101115.75;5044030;28;20096;-46
2022/01/11 07:54:10;;;;;;;0.68;0.20;;;;;;;20.83;34.99;101131.81;5029876;28;20140;-47
2022/01/11 07:56:35;;;;;;;0.77;0.20;;;;;;;20.52;35.55;101126.97;5027229;28;20128;-47
2022/01/11 07:59:01;;;;;;;1.55;0.10;;;;;;;20.30;35.76;101144.72;5029058;28;20033;-46
2022/01/11 08:01:26;;;;;;;0.82;0.20;;;;;;;20.14;36.01;101137.84;5026119;28;20021;-48
2022/01/11 08:03:52;;;;;;;0.43;0.13;;;;;;;20.01;36.23;101135.09;5026236;28;20041;-47
2022/01/11 08:06:17;;;;;;;0.32;0.10;;;;;;;19.92;36.74;101140.69;5027781;28;20079;-49
2022/01/11 08:08:43;;;;;;;0.35;0.10;;;;;;;19.84;37.25;101152.22;5028468;28;20061;-51
2022/01/11 08:11:10;;;;;;;0.60;0.20;;;;;;;19.79;37.78;101144.03;5024842;28;20133;-48
2022/01/11 08:13:37;;;;;;;3.10;0.20;;;;;;;19.77;38.39;101149.53;5027688;28;20038;-48
2022/01/11 08:16:03;;;;;;;12.55;0.63;;;;;;;19.79;39.02;101146.69;5029996;28;20075;-49
2022/01/11 08:18:28;;;;;;;0.25;0.10;;;;;;;19.80;39.80;101148.31;5028651;28;20025;-48
2022/01/11 08:20:53;;;;;;;8.70;0.40;;;;;;;19.80;40.89;101132.47;5028639;28;20032;-50
2022/01/11 08:23:19;;;;;;;8.05;2.45;;;;;;;19.83;41.05;101150.59;5028596;28;20030;-51
2022/01/11 08:25:45;;;;;;;7.00;0.95;;;;;;;19.76;40.65;101155.00;5030933;28;20493;-49
2022/01/11 08:28:10;;;;;;;4.63;0.75;;;;;;;19.69;40.55;101154.09;5029522;28;20083;-50
2022/01/11 08:30:36;;;;;;;0.55;0.20;;;;;;;19.66;40.31;101154.47;5027900;28;20079;-49
2022/01/11 08:33:04;;;;;;;6.43;0.30;;;;;;;19.61;40.03;101167.44;5028804;28;20044;-47
2022/01/11 08:35:31;;;;;;;2.15;0.50;;;;;;;19.77;39.70;101154.81;5027061;28;20048;-49
2022/01/11 08:37:58;;;;;;;1.25;0.30;;;;;;;20.89;37.56;101152.22;5029371;28;20040;-49
2022/01/11 08:40:23;;;;;;;1.20;0.40;;;;;;;21.99;35.40;101162.63;5025908;28;20025;-47
2022/01/11 08:42:49;;;;;;;4.28;0.52;;;;;;;22.66;34.31;101158.16;5026592;28;20029;-52
2022/01/11 08:45:15;;;;;;;1.55;0.20;;;;;;;22.80;34.31;101160.59;5026298;28;20370;-48
2022/01/11 08:47:40;;;;;;;3.65;0.20;;;;;;;22.86;34.09;101172.22;5029084;28;20025;-48
2022/01/11 08:50:10;;;;;;;2.75;0.50;;;;;;;22.89;33.75;101160.38;5027887;28;20038;-49
2022/01/11 08:52:36;;;;;;;2.08;0.50;;;;;;;22.72;33.86;101170.56;5031630;28;20026;-52
2022/01/11 08:55:01;;;;;;;15.88;0.95;;;;;;;22.78;33.69;101173.25;5013081;28;20044;-46
2022/01/11 08:57:27;;;;;;;2.33;0.30;;;;;;;22.58;33.88;101184.91;5025845;28;20053;-52
2022/01/11 08:59:52;;;;;;;1.05;0.30;;;;;;;21.78;35.27;101189.31;5028970;28;20044;-50
2022/01/11 09:02:21;;;;;;;5.55;0.22;;;;;;;21.14;36.52;101187.84;5027859;28;20064;-47
2022/01/11 09:04:47;;;;;;;4.80;0.40;;;;;;;20.76;37.45;101198.00;5028742;28;20120;-48
2022/01/11 09:07:12;;;;;;;8.13;0.30;;;;;;;20.49;37.97;101183.75;5028698;28;20475;-48
2022/01/11 09:09:38;;;;;;;3.75;0.40;;;;;;;20.30;38.09;101181.75;5027988;28;20025;-48
2022/01/11 09:12:06;;;;;;;5.60;0.50;;;;;;;20.16;38.37;101199.31;5027813;28;20541;-47
2022/01/11 09:14:33;;;;;;;6.95;0.50;;;;;;;20.01;38.40;101205.69;5023373;28;20033;-48
2022/01/11 09:17:02;;;;;;;6.32;0.50;;;;;;;19.93;38.47;101200.50;5022028;28;20469;-47
2022/01/11 09:19:28;;;;;;;1.75;0.20;;;;;;;19.84;38.68;101198.00;5025444;28;20099;-49
2022/01/11 09:21:54;;;;;;;3.17;0.38;;;;;;;19.83;38.84;101203.47;5014446;28;20466;-50
2022/01/11 09:24:19;;;;;;;4.32;0.40;;;;;;;19.84;38.99;101200.66;5026332;28;20129;-53
2022/01/11 09:26:48;;;;;;;2.47;0.30;;;;;;;19.77;39.33;101202.41;5018704;28;20079;-48
2022/01/11 09:29:15;;;;;;;2.00;0.50;;;;;;;19.74;39.63;101209.88;5021721;28;20032;-51
2022/01/11 09:31:41;;;;;;;4.72;0.50;;;;;;;19.69;39.73;101199.03;5025150;28;20043;-48
2022/01/11 09:34:07;;;;;;;3.28;0.40;;;;;;;19.67;39.87;101206.34;5025259;28;20025;-47
2022/01/11 09:36:33;;;;;;;1.73;0.30;;;;;;;19.64;40.43;101209.34;5025674;28;20064;-48
2022/01/11 09:38:59;;;;;;;1.90;0.30;;;;;;;19.60;40.27;101218.66;5021872;28;20032;-47
2022/01/11 09:41:25;;;;;;;5.03;0.55;;;;;;;19.57;40.21;101203.16;5023884;28;20030;-47
2022/01/11 09:43:51;;;;;;;3.95;0.30;;;;;;;19.60;39.71;101208.91;5018740;28;20025;-48
2022/01/11 09:46:17;;;;;;;3.25;0.40;;;;;;;20.31;38.02;101201.09;5026016;28;20474;-51
2022/01/11 09:48:44;;;;;;;4.95;0.30;;;;;;;21.35;35.70;101204.66;5027927;28;20501;-50
2022/01/11 09:51:09;;;;;;;3.03;0.60;;;;;;;22.04;34.05;101207.97;5027975;28;20036;-51
2022/01/11 09:53:35;;;;;;;2.67;0.30;;;;;;;22.51;33.11;101198.19;5028603;28;20021;-50
2022/01/11 09:56:05;;;;;;;1.17;0.20;;;;;;;22.62;32.61;101202.06;5023446;28;20385;-48
2022/01/11 09:58:32;;;;;;;2.22;0.47;;;;;;;22.71;32.64;101196.31;5026689;28;20029;-50
2022/01/11 10:00:58;;;;;;;5.63;0.30;;;;;;;22.75;32.72;101210.81;5020232;28;20025;-49
2022/01/11 10:03:24;;;;;;;3.20;0.40;;;;;;;22.68;32.85;101217.19;5026167;28;20037;-50
2022/01/11 10:05:49;;;;;;;1.30;0.32;;;;;;;22.40;33.28;101217.38;5042776;28;20064;-51
2022/01/11 10:08:21;;;;;;;1.85;0.30;;;;;;;21.54;34.54;101233.09;5023901;28;20381;-47
2022/01/11 10:10:48;;;;;;;1.58;0.30;;;;;;;20.85;36.01;101228.59;5024969;28;20381;-47
2022/01/11 10:13:38;;;;;;;2.88;0.40;;;;;;;20.32;36.72;101224.69;5026338;28;20897;-51
2022/01/11 10:16:20;;;;;;;0.93;0.40;;;;;;;20.03;37.06;101224.81;5019992;28;20075;-47
2022/01/11 10:18:45;;;;;;;2.08;0.30;;;;;;;19.88;37.50;101224.88;5028219;28;20162;-50
2022/01/11 10:21:41;;;;;;;3.13;0.50;;;;;;;19.70;37.39;101214.72;5028152;28;20053;-50
2022/01/11 10:24:35;;;;;;;3.03;0.40;;;;;;;19.55;37.76;101224.50;5027596;28;20128;-48
2022/01/11 10:27:07;;;;;;;3.00;0.40;;;;;;;19.50;37.50;101222.38;5029292;28;20057;-47
2022/01/11 10:29:40;;;;;;;2.58;0.30;;;;;;;19.43;37.44;101237.31;5029706;28;20049;-48
2022/01/11 10:32:14;;;;;;;1.52;0.30;;;;;;;19.40;37.55;101240.31;5020867;28;20033;-50
2022/01/11 10:34:39;;;;;;;7.68;0.63;;;;;;;19.39;37.49;101238.69;5024523;28;20033;-47
2022/01/11 10:37:07;;;;;;;3.90;0.45;;;;;;;19.38;37.55;101250.25;5025352;28;20032;-51
2022/01/11 10:39:40;;;;;;;1.20;0.50;;;;;;;19.32;37.44;101242.28;5028040;28;20037;-47
2022/01/11 10:42:23;;;;;;;1.10;0.50;;;;;;;19.29;37.59;101238.16;5024205;28;20033;-48
2022/01/11 10:44:52;;;;;;;3.22;0.63;;;;;;;19.27;37.68;101244.63;5028282;28;20021;-51
2022/01/11 10:47:25;;;;;;;1.80;0.43;;;;;;;19.23;37.65;101233.63;5026713;28;20385;-48
2022/01/11 10:49:54;;;;;;;2.67;0.30;;;;;;;19.21;37.79;101235.63;5026768;28;20038;-47
2022/01/11 10:52:22;;;;;;;1.00;0.22;;;;;;;19.65;37.20;101237.44;5027405;28;20040;-49
2022/01/11 10:54:49;;;;;;;2.08;0.30;;;;;;;20.60;35.74;101238.00;5022649;28;20041;-48
2022/01/11 10:57:25;;;;;;;1.88;0.50;;;;;;;21.19;34.45;101243.72;5027163;28;20033;-47
2022/01/11 11:00:10;;;;;;;1.08;0.43;;;;;;;21.56;34.06;101239.03;5026001;28;20033;-48
2022/01/11 11:02:36;;;;;;;1.30;0.30;;;;;;;21.85;33.26;101237.88;5026256;28;20037;-48
2022/01/11 11:05:15;;;;;;;1.25;0.30;;;;;;;21.84;33.41;101236.25;5025032;28;20315;-49
2022/01/11 11:07:42;;;;;;;0.80;0.30;;;;;;;21.90;33.59;101232.81;5019536;28;20508;-50
2022/01/11 11:10:08;;;;;;;1.27;0.40;;;;;;;21.95;33.74;101240.16;5028305;28;20037;-49
2022/01/11 11:12:34;;;;;;;2.92;0.40;;;;;;;21.70;33.84;101234.59;5024445;28;20390;-48
2022/01/11 11:15:00;;;;;;;0.70;0.22;;;;;;;21.06;35.18;101251.59;5028305;28;20547;-48
2022/01/11 11:17:36;;;;;;;1.25;0.30;;;;;;;20.53;36.00;101240.59;5025929;28;20030;-50
2022/01/11 11:20:10;;;;;;;2.05;0.30;;;;;;;20.17;36.72;101253.88;5026102;28;20655;-49
2022/01/11 11:22:36;;;;;;;1.00;0.40;;;;;;;19.99;37.31;101247.38;5027415;28;20477;-51
2022/01/11 11:25:03;;;;;;;1.70;0.40;;;;;;;19.85;37.54;101246.38;5026722;28;20031;-50
2022/01/11 11:27:31;;;;;;;2.05;0.30;;;;;;;19.75;37.66;101252.00;5024998;28;20045;-51
2022/01/11 11:29:58;;;;;;;1.42;0.40;;;;;;;19.68;37.78;101245.00;5024791;28;20039;-50